sensor_id;sensor_type;location;lat;lon;timestamp;temperature;humidity
82039;DHT22;71610;42.628;23.378;2024-03-08T00:00:04;21.60;34.70
82039;DHT22;71610;42.628;23.378;2024-03-08T00:02:38;21.60;34.70
82039;DHT22;71610;42.628;23.378;2024-03-08T00:05:08;21.60;34.70
82039;DHT22;71610;42.628;23.378;2024-03-08T00:07:37;21.60;34.70
82039;DHT22;71610;42.628;23.378;2024-03-08T00:10:04;21.60;34.70
82039;DHT22;71610;42.628;23.378;2024-03-08T00:12:30;21.60;34.70
82039;DHT22;71610;42.628;23.378;2024-03-08T00:14:56;21.60;34.70
82039;DHT22;71610;42.628;23.378;2024-03-08T00:17:22;21.60;34.60
82039;DHT22;71610;42.628;23.378;2024-03-08T00:19:49;21.60;34.60
82039;DHT22;71610;42.628;23.378;2024-03-08T00:22:16;21.60;34.60
82039;DHT22;71610;42.628;23.378;2024-03-08T00:24:42;21.50;34.60
82039;DHT22;71610;42.628;23.378;2024-03-08T00:27:07;21.50;34.50
82039;DHT22;71610;42.628;23.378;2024-03-08T00:29:34;21.50;34.50
82039;DHT22;71610;42.628;23.378;2024-03-08T00:32:00;21.50;34.50
82039;DHT22;71610;42.628;23.378;2024-03-08T00:34:26;21.50;34.60
82039;DHT22;71610;42.628;23.378;2024-03-08T00:36:52;21.50;34.50
82039;DHT22;71610;42.628;23.378;2024-03-08T00:39:18;21.50;34.50
82039;DHT22;71610;42.628;23.378;2024-03-08T00:41:46;21.50;34.50
82039;DHT22;71610;42.628;23.378;2024-03-08T00:44:13;21.50;34.50
82039;DHT22;71610;42.628;23.378;2024-03-08T00:46:38;21.50;34.40
82039;DHT22;71610;42.628;23.378;2024-03-08T00:49:04;21.50;34.50
82039;DHT22;71610;42.628;23.378;2024-03-08T00:51:30;21.50;34.50
82039;DHT22;71610;42.628;23.378;2024-03-08T00:53:56;21.50;34.50
82039;DHT22;71610;42.628;23.378;2024-03-08T00:56:21;21.50;34.40
82039;DHT22;71610;42.628;23.378;2024-03-08T00:58:47;21.50;34.40
82039;DHT22;71610;42.628;23.378;2024-03-08T01:01:13;21.50;34.40
82039;DHT22;71610;42.628;23.378;2024-03-08T01:03:43;21.50;34.40
82039;DHT22;71610;42.628;23.378;2024-03-08T01:06:09;21.50;34.40
82039;DHT22;71610;42.628;23.378;2024-03-08T01:08:35;21.50;34.40
82039;DHT22;71610;42.628;23.378;2024-03-08T01:11:06;21.50;34.40
82039;DHT22;71610;42.628;23.378;2024-03-08T01:13:32;21.50;34.30
82039;DHT22;71610;42.628;23.378;2024-03-08T01:15:58;21.40;34.30
82039;DHT22;71610;42.628;23.378;2024-03-08T01:18:24;21.40;34.40
82039;DHT22;71610;42.628;23.378;2024-03-08T01:20:49;21.40;34.30
82039;DHT22;71610;42.628;23.378;2024-03-08T01:23:15;21.40;34.30
82039;DHT22;71610;42.628;23.378;2024-03-08T01:25:41;21.40;34.30
82039;DHT22;71610;42.628;23.378;2024-03-08T01:28:07;21.40;34.30
82039;DHT22;71610;42.628;23.378;2024-03-08T01:30:32;21.40;34.30
82039;DHT22;71610;42.628;23.378;2024-03-08T01:33:00;21.40;34.30
82039;DHT22;71610;42.628;23.378;2024-03-08T01:35:26;21.40;34.20
82039;DHT22;71610;42.628;23.378;2024-03-08T01:37:53;21.40;34.30
82039;DHT22;71610;42.628;23.378;2024-03-08T01:40:18;21.40;34.30
82039;DHT22;71610;42.628;23.378;2024-03-08T01:42:44;21.40;34.20
82039;DHT22;71610;42.628;23.378;2024-03-08T01:45:10;21.40;34.20
82039;DHT22;71610;42.628;23.378;2024-03-08T01:47:37;21.40;34.20
82039;DHT22;71610;42.628;23.378;2024-03-08T01:50:03;21.40;34.20
82039;DHT22;71610;42.628;23.378;2024-03-08T01:52:30;21.40;34.20
82039;DHT22;71610;42.628;23.378;2024-03-08T01:55:01;21.40;34.10
82039;DHT22;71610;42.628;23.378;2024-03-08T01:57:29;21.40;34.10
82039;DHT22;71610;42.628;23.378;2024-03-08T01:59:56;21.40;34.10
82039;DHT22;71610;42.628;23.378;2024-03-08T02:02:22;21.40;34.10
82039;DHT22;71610;42.628;23.378;2024-03-08T02:04:48;21.40;34.10
82039;DHT22;71610;42.628;23.378;2024-03-08T02:07:18;21.40;34.10
82039;DHT22;71610;42.628;23.378;2024-03-08T02:09:44;21.40;34.10
82039;DHT22;71610;42.628;23.378;2024-03-08T02:12:10;21.40;34.10
82039;DHT22;71610;42.628;23.378;2024-03-08T02:14:35;21.30;34.10
82039;DHT22;71610;42.628;23.378;2024-03-08T02:17:02;21.30;34.10
82039;DHT22;71610;42.628;23.378;2024-03-08T02:19:28;21.30;34.00
82039;DHT22;71610;42.628;23.378;2024-03-08T02:21:54;21.30;34.10
82039;DHT22;71610;42.628;23.378;2024-03-08T02:24:20;21.30;34.00
82039;DHT22;71610;42.628;23.378;2024-03-08T02:26:46;21.30;34.10
82039;DHT22;71610;42.628;23.378;2024-03-08T02:29:12;21.30;34.10
82039;DHT22;71610;42.628;23.378;2024-03-08T02:31:40;21.30;34.00
82039;DHT22;71610;42.628;23.378;2024-03-08T02:34:05;21.30;34.00
82039;DHT22;71610;42.628;23.378;2024-03-08T02:36:31;21.30;34.00
82039;DHT22;71610;42.628;23.378;2024-03-08T02:39:02;21.30;34.00
82039;DHT22;71610;42.628;23.378;2024-03-08T02:41:28;21.30;34.20
82039;DHT22;71610;42.628;23.378;2024-03-08T02:43:53;21.30;34.00
82039;DHT22;71610;42.628;23.378;2024-03-08T02:46:20;21.30;34.10
82039;DHT22;71610;42.628;23.378;2024-03-08T02:48:46;21.30;34.10
82039;DHT22;71610;42.628;23.378;2024-03-08T02:51:12;21.30;34.10
82039;DHT22;71610;42.628;23.378;2024-03-08T02:53:41;21.30;34.00
82039;DHT22;71610;42.628;23.378;2024-03-08T02:56:08;21.30;34.00
82039;DHT22;71610;42.628;23.378;2024-03-08T02:58:39;21.30;34.00
82039;DHT22;71610;42.628;23.378;2024-03-08T03:01:05;21.30;34.10
82039;DHT22;71610;42.628;23.378;2024-03-08T03:03:30;21.30;34.10
82039;DHT22;71610;42.628;23.378;2024-03-08T03:05:57;21.30;34.10
82039;DHT22;71610;42.628;23.378;2024-03-08T03:08:23;21.30;34.10
82039;DHT22;71610;42.628;23.378;2024-03-08T03:10:49;21.30;34.00
82039;DHT22;71610;42.628;23.378;2024-03-08T03:13:15;21.30;34.00
82039;DHT22;71610;42.628;23.378;2024-03-08T03:15:40;21.30;34.00
82039;DHT22;71610;42.628;23.378;2024-03-08T03:18:07;21.30;34.00
82039;DHT22;71610;42.628;23.378;2024-03-08T03:20:33;21.40;34.00
82039;DHT22;71610;42.628;23.378;2024-03-08T03:23:05;21.40;34.00
82039;DHT22;71610;42.628;23.378;2024-03-08T03:25:34;21.40;34.00
82039;DHT22;71610;42.628;23.378;2024-03-08T03:28:06;21.40;34.00
82039;DHT22;71610;42.628;23.378;2024-03-08T03:30:33;21.40;34.00
82039;DHT22;71610;42.628;23.378;2024-03-08T03:33:02;21.40;34.00
82039;DHT22;71610;42.628;23.378;2024-03-08T03:35:32;21.50;34.10
82039;DHT22;71610;42.628;23.378;2024-03-08T03:37:58;21.40;34.00
82039;DHT22;71610;42.628;23.378;2024-03-08T03:40:28;21.50;34.00
82039;DHT22;71610;42.628;23.378;2024-03-08T03:42:55;21.50;34.00
82039;DHT22;71610;42.628;23.378;2024-03-08T03:45:21;21.50;34.00
82039;DHT22;71610;42.628;23.378;2024-03-08T03:47:46;21.50;33.90
82039;DHT22;71610;42.628;23.378;2024-03-08T03:50:12;21.50;33.90
82039;DHT22;71610;42.628;23.378;2024-03-08T03:52:38;21.50;33.90
82039;DHT22;71610;42.628;23.378;2024-03-08T03:55:04;21.60;33.80
82039;DHT22;71610;42.628;23.378;2024-03-08T03:57:33;21.60;33.80
82039;DHT22;71610;42.628;23.378;2024-03-08T03:59:59;21.60;33.70
82039;DHT22;71610;42.628;23.378;2024-03-08T04:02:25;21.60;33.70
82039;DHT22;71610;42.628;23.378;2024-03-08T04:04:52;21.60;33.60
82039;DHT22;71610;42.628;23.378;2024-03-08T04:07:20;21.60;33.60
82039;DHT22;71610;42.628;23.378;2024-03-08T04:09:46;21.60;33.60
82039;DHT22;71610;42.628;23.378;2024-03-08T04:12:12;21.60;33.50
82039;DHT22;71610;42.628;23.378;2024-03-08T04:14:42;21.70;33.50
82039;DHT22;71610;42.628;23.378;2024-03-08T04:17:08;21.70;33.50
82039;DHT22;71610;42.628;23.378;2024-03-08T04:19:38;21.70;33.40
82039;DHT22;71610;42.628;23.378;2024-03-08T04:22:05;21.70;33.40
82039;DHT22;71610;42.628;23.378;2024-03-08T04:24:33;21.70;33.40
82039;DHT22;71610;42.628;23.378;2024-03-08T04:26:59;21.70;33.30
82039;DHT22;71610;42.628;23.378;2024-03-08T04:29:25;21.70;33.30
82039;DHT22;71610;42.628;23.378;2024-03-08T04:31:51;21.70;33.20
82039;DHT22;71610;42.628;23.378;2024-03-08T04:34:20;21.80;33.30
82039;DHT22;71610;42.628;23.378;2024-03-08T04:36:48;21.80;33.20
82039;DHT22;71610;42.628;23.378;2024-03-08T04:39:14;21.80;33.20
82039;DHT22;71610;42.628;23.378;2024-03-08T04:41:41;21.80;33.10
82039;DHT22;71610;42.628;23.378;2024-03-08T04:44:10;21.80;33.10
82039;DHT22;71610;42.628;23.378;2024-03-08T04:46:36;21.90;33.10
82039;DHT22;71610;42.628;23.378;2024-03-08T04:49:02;21.80;32.90
82039;DHT22;71610;42.628;23.378;2024-03-08T04:51:27;21.90;32.90
82039;DHT22;71610;42.628;23.378;2024-03-08T04:53:54;21.90;32.90
82039;DHT22;71610;42.628;23.378;2024-03-08T04:56:19;21.90;32.80
82039;DHT22;71610;42.628;23.378;2024-03-08T04:58:45;21.90;32.80
82039;DHT22;71610;42.628;23.378;2024-03-08T05:01:14;21.90;32.80
82039;DHT22;71610;42.628;23.378;2024-03-08T05:03:41;21.90;32.70
82039;DHT22;71610;42.628;23.378;2024-03-08T05:06:06;21.90;32.70
82039;DHT22;71610;42.628;23.378;2024-03-08T05:08:32;22.00;32.70
82039;DHT22;71610;42.628;23.378;2024-03-08T05:10:58;22.00;32.90
82039;DHT22;71610;42.628;23.378;2024-03-08T05:13:25;22.00;32.60
82039;DHT22;71610;42.628;23.378;2024-03-08T05:15:50;22.00;33.80
82039;DHT22;71610;42.628;23.378;2024-03-08T05:18:16;21.90;33.80
82039;DHT22;71610;42.628;23.378;2024-03-08T05:20:42;21.90;33.10
82039;DHT22;71610;42.628;23.378;2024-03-08T05:23:08;21.90;33.30
82039;DHT22;71610;42.628;23.378;2024-03-08T05:25:34;21.90;33.40
82039;DHT22;71610;42.628;23.378;2024-03-08T05:27:59;21.90;33.40
82039;DHT22;71610;42.628;23.378;2024-03-08T05:30:25;21.90;33.40
82039;DHT22;71610;42.628;23.378;2024-03-08T05:32:51;21.90;33.40
82039;DHT22;71610;42.628;23.378;2024-03-08T05:35:16;21.90;33.30
82039;DHT22;71610;42.628;23.378;2024-03-08T05:37:42;21.90;33.30
82039;DHT22;71610;42.628;23.378;2024-03-08T05:40:08;21.90;33.20
82039;DHT22;71610;42.628;23.378;2024-03-08T05:42:35;22.00;33.20
82039;DHT22;71610;42.628;23.378;2024-03-08T05:45:05;22.00;33.20
82039;DHT22;71610;42.628;23.378;2024-03-08T05:47:35;22.00;33.10
82039;DHT22;71610;42.628;23.378;2024-03-08T05:50:01;22.00;33.10
82039;DHT22;71610;42.628;23.378;2024-03-08T05:52:27;22.00;33.00
82039;DHT22;71610;42.628;23.378;2024-03-08T05:54:53;22.00;33.00
82039;DHT22;71610;42.628;23.378;2024-03-08T05:57:18;22.10;33.00
82039;DHT22;71610;42.628;23.378;2024-03-08T05:59:44;22.10;33.00
82039;DHT22;71610;42.628;23.378;2024-03-08T06:02:10;22.10;33.00
82039;DHT22;71610;42.628;23.378;2024-03-08T06:04:36;22.10;34.20
82039;DHT22;71610;42.628;23.378;2024-03-08T06:07:01;22.10;33.10
82039;DHT22;71610;42.628;23.378;2024-03-08T06:09:29;22.10;33.00
82039;DHT22;71610;42.628;23.378;2024-03-08T06:11:55;22.10;33.10
82039;DHT22;71610;42.628;23.378;2024-03-08T06:14:22;22.10;33.00
82039;DHT22;71610;42.628;23.378;2024-03-08T06:16:48;22.10;33.10
82039;DHT22;71610;42.628;23.378;2024-03-08T06:19:17;22.20;33.30
82039;DHT22;71610;42.628;23.378;2024-03-08T06:21:43;22.20;33.30
82039;DHT22;71610;42.628;23.378;2024-03-08T06:24:09;22.20;33.50
82039;DHT22;71610;42.628;23.378;2024-03-08T06:26:34;22.20;33.70
82039;DHT22;71610;42.628;23.378;2024-03-08T06:29:00;22.20;33.80
82039;DHT22;71610;42.628;23.378;2024-03-08T06:31:26;22.20;33.90
82039;DHT22;71610;42.628;23.378;2024-03-08T06:33:52;22.20;34.30
82039;DHT22;71610;42.628;23.378;2024-03-08T06:36:19;22.30;34.60
82039;DHT22;71610;42.628;23.378;2024-03-08T06:38:47;22.30;34.80
82039;DHT22;71610;42.628;23.378;2024-03-08T06:41:13;22.30;35.30
82039;DHT22;71610;42.628;23.378;2024-03-08T06:43:45;22.30;35.40
82039;DHT22;71610;42.628;23.378;2024-03-08T06:46:12;22.30;35.70
82039;DHT22;71610;42.628;23.378;2024-03-08T06:48:41;22.30;36.70
82039;DHT22;71610;42.628;23.378;2024-03-08T06:51:07;22.40;37.30
82039;DHT22;71610;42.628;23.378;2024-03-08T06:53:33;22.40;37.40
82039;DHT22;71610;42.628;23.378;2024-03-08T06:56:01;22.40;37.50
82039;DHT22;71610;42.628;23.378;2024-03-08T06:58:27;22.50;37.70
82039;DHT22;71610;42.628;23.378;2024-03-08T07:00:53;22.50;38.10
82039;DHT22;71610;42.628;23.378;2024-03-08T07:03:21;22.50;38.00
82039;DHT22;71610;42.628;23.378;2024-03-08T07:05:47;22.50;38.20
82039;DHT22;71610;42.628;23.378;2024-03-08T07:08:13;22.50;38.30
82039;DHT22;71610;42.628;23.378;2024-03-08T07:10:40;22.60;38.50
82039;DHT22;71610;42.628;23.378;2024-03-08T07:13:10;22.60;38.50
82039;DHT22;71610;42.628;23.378;2024-03-08T07:15:36;22.70;38.70
82039;DHT22;71610;42.628;23.378;2024-03-08T07:18:02;22.70;38.70
82039;DHT22;71610;42.628;23.378;2024-03-08T07:20:28;22.70;38.80
82039;DHT22;71610;42.628;23.378;2024-03-08T07:22:54;22.70;38.90
82039;DHT22;71610;42.628;23.378;2024-03-08T07:25:20;22.70;39.00
82039;DHT22;71610;42.628;23.378;2024-03-08T07:27:53;22.80;39.10
82039;DHT22;71610;42.628;23.378;2024-03-08T07:30:23;22.80;39.20
82039;DHT22;71610;42.628;23.378;2024-03-08T07:33:08;22.80;39.20
82039;DHT22;71610;42.628;23.378;2024-03-08T07:35:37;22.80;39.10
82039;DHT22;71610;42.628;23.378;2024-03-08T07:38:12;22.80;39.20
82039;DHT22;71610;42.628;23.378;2024-03-08T07:40:41;22.90;39.30
82039;DHT22;71610;42.628;23.378;2024-03-08T07:43:12;22.90;39.30
82039;DHT22;71610;42.628;23.378;2024-03-08T07:45:39;22.90;39.30
82039;DHT22;71610;42.628;23.378;2024-03-08T07:48:05;22.90;39.10
82039;DHT22;71610;42.628;23.378;2024-03-08T07:50:38;22.90;38.80
82039;DHT22;71610;42.628;23.378;2024-03-08T07:53:10;22.90;38.80
82039;DHT22;71610;42.628;23.378;2024-03-08T07:55:36;22.90;38.80
82039;DHT22;71610;42.628;23.378;2024-03-08T07:58:02;22.90;38.80
82039;DHT22;71610;42.628;23.378;2024-03-08T08:00:29;22.90;38.60
82039;DHT22;71610;42.628;23.378;2024-03-08T08:02:56;22.90;38.50
82039;DHT22;71610;42.628;23.378;2024-03-08T08:05:21;22.90;38.40
82039;DHT22;71610;42.628;23.378;2024-03-08T08:07:47;22.90;38.30
82039;DHT22;71610;42.628;23.378;2024-03-08T08:10:13;22.90;38.20
82039;DHT22;71610;42.628;23.378;2024-03-08T08:12:44;22.90;38.20
82039;DHT22;71610;42.628;23.378;2024-03-08T08:15:10;22.90;38.20
82039;DHT22;71610;42.628;23.378;2024-03-08T08:17:36;22.90;38.30
82039;DHT22;71610;42.628;23.378;2024-03-08T08:20:02;22.90;38.70
82039;DHT22;71610;42.628;23.378;2024-03-08T08:22:31;22.90;39.10
82039;DHT22;71610;42.628;23.378;2024-03-08T08:24:56;22.90;39.60
82039;DHT22;71610;42.628;23.378;2024-03-08T08:27:22;23.00;40.00
82039;DHT22;71610;42.628;23.378;2024-03-08T08:29:48;23.00;40.30
82039;DHT22;71610;42.628;23.378;2024-03-08T08:32:15;23.10;40.40
82039;DHT22;71610;42.628;23.378;2024-03-08T08:34:41;23.10;40.60
82039;DHT22;71610;42.628;23.378;2024-03-08T08:37:07;23.10;40.50
82039;DHT22;71610;42.628;23.378;2024-03-08T08:39:35;23.10;40.70
82039;DHT22;71610;42.628;23.378;2024-03-08T08:42:01;23.10;40.90
82039;DHT22;71610;42.628;23.378;2024-03-08T08:44:28;23.10;40.90
82039;DHT22;71610;42.628;23.378;2024-03-08T08:46:54;23.10;41.00
82039;DHT22;71610;42.628;23.378;2024-03-08T08:49:19;23.10;41.20
82039;DHT22;71610;42.628;23.378;2024-03-08T08:51:52;23.10;41.20
82039;DHT22;71610;42.628;23.378;2024-03-08T08:54:18;23.20;41.20
82039;DHT22;71610;42.628;23.378;2024-03-08T08:56:44;23.20;41.20
82039;DHT22;71610;42.628;23.378;2024-03-08T08:59:10;23.20;41.20
82039;DHT22;71610;42.628;23.378;2024-03-08T09:01:40;23.20;41.20
82039;DHT22;71610;42.628;23.378;2024-03-08T09:04:05;23.20;41.30
82039;DHT22;71610;42.628;23.378;2024-03-08T09:06:33;23.30;41.40
82039;DHT22;71610;42.628;23.378;2024-03-08T09:08:58;23.20;41.20
82039;DHT22;71610;42.628;23.378;2024-03-08T09:11:24;23.30;41.30
82039;DHT22;71610;42.628;23.378;2024-03-08T09:13:53;23.30;41.10
82039;DHT22;71610;42.628;23.378;2024-03-08T09:16:18;23.30;41.10
82039;DHT22;71610;42.628;23.378;2024-03-08T09:18:44;23.30;41.10
82039;DHT22;71610;42.628;23.378;2024-03-08T09:21:10;23.30;41.10
82039;DHT22;71610;42.628;23.378;2024-03-08T09:23:36;23.30;41.30
82039;DHT22;71610;42.628;23.378;2024-03-08T09:26:02;23.30;41.50
82039;DHT22;71610;42.628;23.378;2024-03-08T09:28:29;23.30;41.40
82039;DHT22;71610;42.628;23.378;2024-03-08T09:30:55;23.30;41.30
82039;DHT22;71610;42.628;23.378;2024-03-08T09:33:21;23.30;41.10
82039;DHT22;71610;42.628;23.378;2024-03-08T09:35:47;23.20;41.00
82039;DHT22;71610;42.628;23.378;2024-03-08T09:38:14;23.30;42.80
82039;DHT22;71610;42.628;23.378;2024-03-08T09:40:43;23.30;44.00
82039;DHT22;71610;42.628;23.378;2024-03-08T09:43:10;23.30;44.50
82039;DHT22;71610;42.628;23.378;2024-03-08T09:45:40;23.30;44.10
82039;DHT22;71610;42.628;23.378;2024-03-08T09:48:13;23.40;44.20
82039;DHT22;71610;42.628;23.378;2024-03-08T09:50:42;23.40;44.10
82039;DHT22;71610;42.628;23.378;2024-03-08T09:53:08;23.40;43.90
82039;DHT22;71610;42.628;23.378;2024-03-08T09:55:37;23.40;43.50
82039;DHT22;71610;42.628;23.378;2024-03-08T09:58:06;23.40;43.20
82039;DHT22;71610;42.628;23.378;2024-03-08T10:01:02;23.40;42.50
82039;DHT22;71610;42.628;23.378;2024-03-08T10:03:30;23.40;42.10
82039;DHT22;71610;42.628;23.378;2024-03-08T10:05:58;23.40;42.10
82039;DHT22;71610;42.628;23.378;2024-03-08T10:08:27;23.40;42.00
82039;DHT22;71610;42.628;23.378;2024-03-08T10:10:57;23.40;41.40
82039;DHT22;71610;42.628;23.378;2024-03-08T10:13:26;23.40;40.70
82039;DHT22;71610;42.628;23.378;2024-03-08T10:15:54;23.40;40.00
82039;DHT22;71610;42.628;23.378;2024-03-08T10:18:21;23.40;39.60
82039;DHT22;71610;42.628;23.378;2024-03-08T10:21:05;23.40;39.30
82039;DHT22;71610;42.628;23.378;2024-03-08T10:23:33;23.40;39.00
82039;DHT22;71610;42.628;23.378;2024-03-08T10:26:10;23.40;38.10
82039;DHT22;71610;42.628;23.378;2024-03-08T10:28:35;23.40;37.80
82039;DHT22;71610;42.628;23.378;2024-03-08T10:31:02;23.40;38.00
82039;DHT22;71610;42.628;23.378;2024-03-08T10:33:28;23.30;38.30
82039;DHT22;71610;42.628;23.378;2024-03-08T10:35:53;23.40;38.50
82039;DHT22;71610;42.628;23.378;2024-03-08T10:38:23;23.40;38.80
82039;DHT22;71610;42.628;23.378;2024-03-08T10:40:50;23.40;38.80
82039;DHT22;71610;42.628;23.378;2024-03-08T10:43:24;23.30;38.60
82039;DHT22;71610;42.628;23.378;2024-03-08T10:48:55;23.30;38.30
82039;DHT22;71610;42.628;23.378;2024-03-08T10:51:24;23.30;38.20
82039;DHT22;71610;42.628;23.378;2024-03-08T10:53:52;23.30;38.20
82039;DHT22;71610;42.628;23.378;2024-03-08T10:56:19;23.30;37.90
82039;DHT22;71610;42.628;23.378;2024-03-08T10:58:45;23.30;37.50
82039;DHT22;71610;42.628;23.378;2024-03-08T11:01:12;23.30;37.30
82039;DHT22;71610;42.628;23.378;2024-03-08T11:06:18;23.30;36.70
82039;DHT22;71610;42.628;23.378;2024-03-08T11:08:46;23.30;36.80
82039;DHT22;71610;42.628;23.378;2024-03-08T11:11:29;23.30;36.70
82039;DHT22;71610;42.628;23.378;2024-03-08T11:13:58;23.20;36.60
82039;DHT22;71610;42.628;23.378;2024-03-08T11:19:05;23.30;36.40
82039;DHT22;71610;42.628;23.378;2024-03-08T11:21:31;23.20;36.20
82039;DHT22;71610;42.628;23.378;2024-03-08T11:24:12;23.30;36.10
82039;DHT22;71610;42.628;23.378;2024-03-08T11:26:42;23.20;35.90
82039;DHT22;71610;42.628;23.378;2024-03-08T11:32:27;23.20;36.00
82039;DHT22;71610;42.628;23.378;2024-03-08T11:34:53;23.20;35.90
82039;DHT22;71610;42.628;23.378;2024-03-08T11:37:20;23.20;35.90
82039;DHT22;71610;42.628;23.378;2024-03-08T11:39:48;23.20;36.00
82039;DHT22;71610;42.628;23.378;2024-03-08T11:42:18;23.20;35.80
82039;DHT22;71610;42.628;23.378;2024-03-08T11:44:47;23.20;36.40
82039;DHT22;71610;42.628;23.378;2024-03-08T11:47:14;23.20;34.60
82039;DHT22;71610;42.628;23.378;2024-03-08T11:49:41;23.20;34.30
82039;DHT22;71610;42.628;23.378;2024-03-08T11:52:15;23.20;33.90
82039;DHT22;71610;42.628;23.378;2024-03-08T11:54:41;23.20;33.50
82039;DHT22;71610;42.628;23.378;2024-03-08T11:57:09;23.20;34.10
82039;DHT22;71610;42.628;23.378;2024-03-08T11:59:36;23.20;35.80
82039;DHT22;71610;42.628;23.378;2024-03-08T12:02:04;23.20;36.50
82039;DHT22;71610;42.628;23.378;2024-03-08T12:04:31;23.20;36.70
82039;DHT22;71610;42.628;23.378;2024-03-08T12:06:59;23.20;37.10
82039;DHT22;71610;42.628;23.378;2024-03-08T12:09:28;23.20;37.20
82039;DHT22;71610;42.628;23.378;2024-03-08T12:11:53;23.20;37.20
82039;DHT22;71610;42.628;23.378;2024-03-08T12:14:19;23.20;37.10
82039;DHT22;71610;42.628;23.378;2024-03-08T12:16:46;23.20;36.90
82039;DHT22;71610;42.628;23.378;2024-03-08T12:19:14;23.20;36.80
82039;DHT22;71610;42.628;23.378;2024-03-08T12:21:42;23.20;36.40
82039;DHT22;71610;42.628;23.378;2024-03-08T12:24:15;23.10;36.10
82039;DHT22;71610;42.628;23.378;2024-03-08T12:26:45;23.10;36.10
82039;DHT22;71610;42.628;23.378;2024-03-08T12:29:29;23.10;36.10
82039;DHT22;71610;42.628;23.378;2024-03-08T12:31:59;23.10;36.00
82039;DHT22;71610;42.628;23.378;2024-03-08T12:34:26;23.10;35.80
82039;DHT22;71610;42.628;23.378;2024-03-08T12:36:54;23.10;35.30
82039;DHT22;71610;42.628;23.378;2024-03-08T12:39:21;23.10;34.20
82039;DHT22;71610;42.628;23.378;2024-03-08T12:41:53;23.10;34.00
82039;DHT22;71610;42.628;23.378;2024-03-08T12:44:20;23.10;34.00
82039;DHT22;71610;42.628;23.378;2024-03-08T12:46:49;23.00;34.00
82039;DHT22;71610;42.628;23.378;2024-03-08T12:49:15;23.10;33.60
82039;DHT22;71610;42.628;23.378;2024-03-08T12:51:46;23.00;33.10
82039;DHT22;71610;42.628;23.378;2024-03-08T12:54:12;23.00;32.80
82039;DHT22;71610;42.628;23.378;2024-03-08T12:56:38;23.00;32.40
82039;DHT22;71610;42.628;23.378;2024-03-08T12:59:06;23.00;31.80
82039;DHT22;71610;42.628;23.378;2024-03-08T13:01:33;23.00;31.90
82039;DHT22;71610;42.628;23.378;2024-03-08T13:03:59;23.00;31.90
82039;DHT22;71610;42.628;23.378;2024-03-08T13:06:28;23.00;33.40
82039;DHT22;71610;42.628;23.378;2024-03-08T13:08:56;23.00;32.40
82039;DHT22;71610;42.628;23.378;2024-03-08T13:11:22;23.00;32.90
82039;DHT22;71610;42.628;23.378;2024-03-08T13:13:49;23.00;33.40
82039;DHT22;71610;42.628;23.378;2024-03-08T13:16:15;23.10;33.90
82039;DHT22;71610;42.628;23.378;2024-03-08T13:18:43;23.10;34.30
82039;DHT22;71610;42.628;23.378;2024-03-08T13:21:12;23.10;34.70
82039;DHT22;71610;42.628;23.378;2024-03-08T13:23:40;23.10;35.30
82039;DHT22;71610;42.628;23.378;2024-03-08T13:26:11;23.10;36.40
82039;DHT22;71610;42.628;23.378;2024-03-08T13:28:45;23.10;37.40
82039;DHT22;71610;42.628;23.378;2024-03-08T13:31:11;23.20;37.70
82039;DHT22;71610;42.628;23.378;2024-03-08T13:33:37;23.20;38.10
82039;DHT22;71610;42.628;23.378;2024-03-08T13:36:11;23.20;38.10
82039;DHT22;71610;42.628;23.378;2024-03-08T13:38:45;23.30;38.20
82039;DHT22;71610;42.628;23.378;2024-03-08T13:41:11;23.30;38.10
82039;DHT22;71610;42.628;23.378;2024-03-08T13:43:46;23.20;38.50
82039;DHT22;71610;42.628;23.378;2024-03-08T13:46:12;23.30;38.80
82039;DHT22;71610;42.628;23.378;2024-03-08T13:48:38;23.30;38.80
82039;DHT22;71610;42.628;23.378;2024-03-08T13:51:06;23.30;39.00
82039;DHT22;71610;42.628;23.378;2024-03-08T13:53:33;23.40;39.20
82039;DHT22;71610;42.628;23.378;2024-03-08T13:56:01;23.40;39.20
82039;DHT22;71610;42.628;23.378;2024-03-08T13:58:27;23.40;39.20
82039;DHT22;71610;42.628;23.378;2024-03-08T14:00:53;23.40;39.30
82039;DHT22;71610;42.628;23.378;2024-03-08T14:03:19;23.40;39.40
82039;DHT22;71610;42.628;23.378;2024-03-08T14:05:46;23.40;39.60
82039;DHT22;71610;42.628;23.378;2024-03-08T14:08:12;23.40;39.70
82039;DHT22;71610;42.628;23.378;2024-03-08T14:10:38;23.40;39.30
82039;DHT22;71610;42.628;23.378;2024-03-08T14:13:04;23.40;38.50
82039;DHT22;71610;42.628;23.378;2024-03-08T14:15:32;23.40;38.40
82039;DHT22;71610;42.628;23.378;2024-03-08T14:17:58;23.40;38.60
82039;DHT22;71610;42.628;23.378;2024-03-08T14:20:25;23.40;40.10
82039;DHT22;71610;42.628;23.378;2024-03-08T14:22:54;23.40;39.50
82039;DHT22;71610;42.628;23.378;2024-03-08T14:25:21;23.40;39.70
82039;DHT22;71610;42.628;23.378;2024-03-08T14:27:50;23.40;39.70
82039;DHT22;71610;42.628;23.378;2024-03-08T14:30:16;23.40;39.80
82039;DHT22;71610;42.628;23.378;2024-03-08T14:33:01;23.40;39.60
82039;DHT22;71610;42.628;23.378;2024-03-08T14:35:27;23.40;39.50
82039;DHT22;71610;42.628;23.378;2024-03-08T14:37:53;23.40;39.30
82039;DHT22;71610;42.628;23.378;2024-03-08T14:40:18;23.40;39.20
82039;DHT22;71610;42.628;23.378;2024-03-08T14:42:51;23.30;39.10
82039;DHT22;71610;42.628;23.378;2024-03-08T14:45:17;23.30;39.00
82039;DHT22;71610;42.628;23.378;2024-03-08T14:47:50;23.30;39.00
82039;DHT22;71610;42.628;23.378;2024-03-08T14:50:20;23.30;38.90
82039;DHT22;71610;42.628;23.378;2024-03-08T14:52:46;23.30;38.80
82039;DHT22;71610;42.628;23.378;2024-03-08T14:55:17;23.30;38.70
82039;DHT22;71610;42.628;23.378;2024-03-08T14:57:45;23.30;38.70
82039;DHT22;71610;42.628;23.378;2024-03-08T15:00:12;23.20;38.60
82039;DHT22;71610;42.628;23.378;2024-03-08T15:02:43;23.20;38.50
82039;DHT22;71610;42.628;23.378;2024-03-08T15:05:09;23.20;38.40
82039;DHT22;71610;42.628;23.378;2024-03-08T15:07:37;23.20;38.40
82039;DHT22;71610;42.628;23.378;2024-03-08T15:10:09;23.10;39.40
82039;DHT22;71610;42.628;23.378;2024-03-08T15:12:40;23.10;38.20
82039;DHT22;71610;42.628;23.378;2024-03-08T15:15:09;23.10;38.20
82039;DHT22;71610;42.628;23.378;2024-03-08T15:17:37;23.10;38.20
82039;DHT22;71610;42.628;23.378;2024-03-08T15:20:08;23.10;38.50
82039;DHT22;71610;42.628;23.378;2024-03-08T15:22:51;23.10;38.80
82039;DHT22;71610;42.628;23.378;2024-03-08T15:25:21;23.10;39.00
82039;DHT22;71610;42.628;23.378;2024-03-08T15:27:55;23.10;39.10